Time;durP1;ratioP1;P1;durP2;ratioP2;P2;SDS_P1;SDS_P2;PMS_P1;PMS_P2;Temp;Humidity;BMP_temperature;BMP_pressure;BME280_temperature;BME280_humidity;BME280_pressure;Samples;Min_cycle;Max_cycle;Signal;HPM_P1;HPM_P2
2023/09/10 00:01:11;;;;;;;2.70;1.87;;;;;;;-143.84;41.48;45041.44;5088514;28;20810;-54
2023/09/10 00:03:40;;;;;;;4.70;2.00;;;;;;;-143.84;41.30;45056.69;5087259;28;21063;-54
2023/09/10 00:06:07;;;;;;;4.83;2.30;;;;;;;-143.84;41.50;45049.06;5087413;28;20443;-54
2023/09/10 00:08:35;;;;;;;11.23;1.73;;;;;;;-143.84;41.31;45031.94;5087868;28;20440;-54
2023/09/10 00:11:04;;;;;;;3.47;1.70;;;;;;;-143.84;41.48;45035.75;5088410;28;20963;-57
2023/09/10 00:13:32;;;;;;;4.37;1.90;;;;;;;-143.84;41.54;45037.66;5088364;28;20521;-56
2023/09/10 00:15:59;;;;;;;9.13;2.50;;;;;;;-143.84;41.57;45070.00;5088085;28;20519;-56
2023/09/10 00:18:26;;;;;;;6.43;2.47;;;;;;;-143.84;41.74;45043.34;5087993;28;20479;-56
2023/09/10 00:20:55;;;;;;;3.77;2.10;;;;;;;-143.84;41.62;45039.53;5087957;28;20656;-56
2023/09/10 00:23:22;;;;;;;4.67;2.40;;;;;;;-143.84;41.53;45041.44;5087926;28;20439;-56
2023/09/10 00:25:49;;;;;;;7.73;2.30;;;;;;;-143.84;41.91;45030.03;5091708;28;20950;-56
2023/09/10 00:28:17;;;;;;;2.60;1.90;;;;;;;-143.84;42.05;45039.53;5091616;28;20530;-56
2023/09/10 00:30:44;;;;;;;2.50;1.47;;;;;;;-143.84;42.15;45026.22;5091866;28;20444;-56
2023/09/10 00:33:11;;;;;;;21.63;2.47;;;;;;;-143.84;42.20;45064.31;5091637;28;20489;-56
2023/09/10 00:35:38;;;;;;;4.40;2.53;;;;;;;-143.84;42.73;45026.22;5091754;28;20443;-56
2023/09/10 00:38:06;;;;;;;4.20;2.73;;;;;;;-143.84;42.62;45026.22;5091416;28;20887;-56
2023/09/10 00:40:34;;;;;;;3.50;1.97;;;;;;;-143.84;42.70;45045.25;5091282;28;20459;-56
2023/09/10 00:43:01;;;;;;;4.27;2.57;;;;;;;-143.84;42.74;45026.22;5090675;28;20500;-56
2023/09/10 00:45:29;;;;;;;7.93;2.20;;;;;;;-143.84;43.03;45022.41;5090957;28;21013;-56
2023/09/10 00:47:56;;;;;;;7.50;2.77;;;;;;;-143.84;43.20;45022.41;5090934;28;20439;-56
2023/09/10 00:50:24;;;;;;;6.10;2.10;;;;;;;-143.84;43.40;45045.25;5091353;28;20440;-56
2023/09/10 00:52:54;;;;;;;2.73;2.30;;;;;;;-143.84;43.52;45022.41;5091458;28;20492;-56
2023/09/10 00:55:23;;;;;;;10.83;2.37;;;;;;;-143.84;43.98;45022.41;5091613;28;20435;-56
2023/09/10 00:57:51;;;;;;;3.13;2.40;;;;;;;-143.84;44.05;45020.50;5091131;28;20874;-56
2023/09/10 01:00:20;;;;;;;4.23;2.17;;;;;;;-143.84;44.50;45041.44;5090950;28;20479;-56
2023/09/10 01:02:50;;;;;;;2.53;2.27;;;;;;;-143.84;44.62;45033.84;5090903;28;21009;-56
2023/09/10 01:05:19;;;;;;;2.23;1.90;;;;;;;-143.84;45.15;45035.75;5091095;28;20497;-56
2023/09/10 01:07:46;;;;;;;7.67;1.87;;;;;;;-143.84;45.52;45045.25;5090969;28;20432;-56
2023/09/10 01:10:14;;;;;;;3.00;2.17;;;;;;;-143.84;45.89;45050.97;5090950;28;20445;-56
2023/09/10 01:12:52;;;;;;;4.33;2.00;;;;;;;-143.84;46.35;45045.25;5090934;28;20447;-56
2023/09/10 01:15:26;;;;;;;2.90;1.90;;;;;;;-143.84;46.59;45026.22;5091038;28;20451;-56
2023/09/10 01:18:00;;;;;;;9.63;2.70;;;;;;;-143.84;46.92;45045.25;5090289;28;20446;-56
2023/09/10 01:21:03;;;;;;;9.43;2.03;;;;;;;-143.84;47.66;45045.25;5090085;28;20428;-56
2023/09/10 01:23:44;;;;;;;6.97;2.40;;;;;;;-143.84;48.14;45031.94;5090323;28;21304;-56
2023/09/10 01:26:12;;;;;;;11.30;2.13;;;;;;;-143.84;48.20;45018.59;5090785;28;20443;-56
2023/09/10 01:28:40;;;;;;;6.23;2.30;;;;;;;-143.84;48.43;45056.69;5090715;28;20460;-56
2023/09/10 01:31:07;;;;;;;3.93;2.27;;;;;;;-143.84;48.83;45022.41;5090574;28;20444;-56
2023/09/10 01:33:37;;;;;;;3.07;2.17;;;;;;;-143.84;49.14;45041.44;5082136;28;20965;-56
2023/09/10 01:36:09;;;;;;;4.93;1.80;;;;;;;-143.84;49.76;45056.69;5069861;28;20437;-56
2023/09/10 01:38:41;;;;;;;6.10;1.90;;;;;;;-143.84;50.77;45054.78;5070127;28;20978;-56
2023/09/10 01:41:14;;;;;;;10.20;2.17;;;;;;;-143.84;51.51;45033.84;5070281;28;20482;-56
2023/09/10 01:43:42;;;;;;;8.17;2.23;;;;;;;-143.84;52.07;45018.59;5070438;28;20793;-56
2023/09/10 01:46:09;;;;;;;5.13;2.40;;;;;;;-143.84;51.52;45064.31;5070085;28;20510;-56
2023/09/10 01:48:37;;;;;;;5.93;2.50;;;;;;;-143.84;52.35;45045.25;5070040;28;20490;-56
2023/09/10 01:51:04;;;;;;;5.33;2.73;;;;;;;-143.84;52.73;45060.50;5070222;28;21368;-56
2023/09/10 01:53:32;;;;;;;4.77;2.33;;;;;;;-143.84;52.81;45024.31;5069948;28;20441;-58
2023/09/10 01:55:59;;;;;;;13.03;1.90;;;;;;;-143.84;52.72;45043.34;5069753;28;20455;-58
2023/09/10 01:58:27;;;;;;;3.13;2.00;;;;;;;-143.84;51.91;45037.66;5069764;28;20476;-58
2023/09/10 02:00:54;;;;;;;9.63;2.00;;;;;;;-143.84;51.46;45052.88;5069664;28;20452;-59
2023/09/10 02:03:21;;;;;;;3.50;2.40;;;;;;;-143.84;50.93;45033.84;5070176;28;20437;-59
2023/09/10 02:05:49;;;;;;;4.70;2.07;;;;;;;-143.84;51.02;45047.16;5069657;28;20441;-59
2023/09/10 02:08:16;;;;;;;2.37;2.13;;;;;;;-143.84;50.83;45028.13;5069684;28;20436;-59
2023/09/10 02:10:44;;;;;;;4.93;2.67;;;;;;;-143.84;50.59;45033.84;5069518;28;20441;-58
2023/09/10 02:13:11;;;;;;;5.83;2.30;;;;;;;-143.84;50.84;45033.84;5069595;28;20921;-56
2023/09/10 02:15:40;;;;;;;5.50;3.07;;;;;;;-143.84;50.91;45052.88;5069896;28;20933;-56
2023/09/10 02:18:07;;;;;;;4.50;2.20;;;;;;;-143.84;51.39;45054.78;5069124;28;20447;-56
2023/09/10 02:20:36;;;;;;;3.33;1.77;;;;;;;-143.84;51.31;45041.44;5069613;28;21353;-56
2023/09/10 02:23:04;;;;;;;5.10;2.47;;;;;;;-143.84;52.07;45062.41;5069398;28;20445;-56
2023/09/10 02:25:32;;;;;;;4.07;1.90;;;;;;;-143.84;52.96;45033.84;5069410;28;21311;-56
2023/09/10 02:28:00;;;;;;;7.53;2.37;;;;;;;-143.84;53.69;45028.13;5069303;28;20880;-56
2023/09/10 02:30:27;;;;;;;19.30;2.50;;;;;;;-143.84;53.66;45033.84;5069605;28;20440;-56
2023/09/10 02:32:56;;;;;;;5.50;2.30;;;;;;;-143.84;53.99;45045.25;5068977;28;20808;-56
2023/09/10 02:35:24;;;;;;;6.13;2.83;;;;;;;-143.84;53.69;45054.78;5068881;28;20969;-56
2023/09/10 02:37:51;;;;;;;11.90;2.70;;;;;;;-143.84;53.71;45052.88;5068966;28;20436;-56
2023/09/10 02:40:18;;;;;;;3.40;2.47;;;;;;;-143.84;53.46;45049.06;5069120;28;20504;-56
2023/09/10 02:42:45;;;;;;;8.20;2.10;;;;;;;-143.84;53.22;45039.53;5069362;28;20429;-56
2023/09/10 02:45:13;;;;;;;4.60;2.20;;;;;;;-143.84;53.05;45035.75;5068895;28;20445;-56
2023/09/10 02:47:40;;;;;;;5.37;2.63;;;;;;;-143.84;52.87;45070.00;5067834;28;20514;-56
2023/09/10 02:50:10;;;;;;;3.70;2.37;;;;;;;-143.84;53.01;45045.25;5068191;28;21004;-56
2023/09/10 02:52:37;;;;;;;6.63;2.60;;;;;;;-143.84;53.29;45020.50;5068920;28;20444;-56
2023/09/10 02:55:05;;;;;;;5.70;2.10;;;;;;;-143.84;53.58;45043.34;5068499;28;20444;-56
2023/09/10 02:57:32;;;;;;;4.57;2.43;;;;;;;-143.84;53.47;45071.91;5068872;28;20437;-56
2023/09/10 02:59:59;;;;;;;7.00;2.00;;;;;;;-143.84;53.58;45012.88;5068554;28;20492;-56
2023/09/10 03:02:26;;;;;;;4.07;2.63;;;;;;;-143.84;53.61;45039.53;5068508;28;21132;-56
2023/09/10 03:04:53;;;;;;;6.07;2.60;;;;;;;-143.84;53.95;45041.44;5068675;28;20440;-56
2023/09/10 03:07:22;;;;;;;3.87;2.40;;;;;;;-143.84;53.66;45041.44;5068666;28;20491;-56
2023/09/10 03:09:50;;;;;;;23.60;2.93;;;;;;;-143.84;53.82;45033.84;5068656;28;20453;-56
2023/09/10 03:12:22;;;;;;;5.20;2.27;;;;;;;-143.84;54.12;45052.88;5068641;28;20436;-56
2023/09/10 03:14:49;;;;;;;4.23;2.17;;;;;;;-143.84;53.83;45049.06;5068686;28;20808;-56
2023/09/10 03:17:16;;;;;;;4.90;2.50;;;;;;;-143.84;53.88;45054.78;5068382;28;20448;-56
2023/09/10 03:19:44;;;;;;;4.37;2.63;;;;;;;-143.84;53.92;45068.13;5068466;28;20553;-56
2023/09/10 03:22:11;;;;;;;6.40;2.70;;;;;;;-143.84;53.86;45033.84;5068549;28;20444;-56
2023/09/10 03:24:40;;;;;;;9.63;2.40;;;;;;;-143.84;54.00;45039.53;5068347;28;20456;-56
2023/09/10 03:27:07;;;;;;;7.37;2.70;;;;;;;-143.84;54.19;45020.50;5068566;28;20518;-56
2023/09/10 03:29:35;;;;;;;4.90;2.63;;;;;;;-143.84;54.14;45070.00;5068401;28;20436;-56
2023/09/10 03:32:06;;;;;;;8.23;3.33;;;;;;;-143.84;53.96;45033.84;5068122;28;20452;-56
2023/09/10 03:34:34;;;;;;;4.37;2.40;;;;;;;-143.84;54.26;45068.13;5068046;28;20917;-56
2023/09/10 03:37:03;;;;;;;5.97;2.57;;;;;;;-143.84;53.78;45045.25;5068641;28;20445;-56
2023/09/10 03:39:30;;;;;;;6.57;2.40;;;;;;;-143.84;53.98;45041.44;5068778;28;20538;-56
2023/09/10 03:41:58;;;;;;;9.70;2.80;;;;;;;-143.84;54.04;45031.94;5068360;28;20506;-56
2023/09/10 03:44:25;;;;;;;4.63;2.10;;;;;;;-143.84;54.02;45028.13;5068101;28;20456;-56
2023/09/10 03:46:53;;;;;;;2.90;2.27;;;;;;;-143.84;54.42;45045.25;5068079;28;20441;-56
2023/09/10 03:49:20;;;;;;;8.47;2.57;;;;;;;-143.84;54.40;45033.84;5068388;28;20460;-56
2023/09/10 03:51:48;;;;;;;7.33;2.87;;;;;;;-143.84;54.32;45052.88;5068183;28;20452;-56
2023/09/10 03:54:16;;;;;;;3.47;3.03;;;;;;;-143.84;54.36;45056.69;5065204;28;20955;-56
2023/09/10 03:56:43;;;;;;;6.90;2.43;;;;;;;-143.84;57.25;45050.97;5067711;28;20452;-56
2023/09/10 03:59:11;;;;;;;7.23;2.70;;;;;;;-143.84;59.87;45028.13;5068793;28;20487;-56
2023/09/10 04:01:39;;;;;;;5.47;2.80;;;;;;;-143.84;60.86;45047.16;5071901;28;20546;-56
2023/09/10 04:04:07;;;;;;;5.87;2.50;;;;;;;-143.84;60.76;45049.06;5072225;28;20462;-56
2023/09/10 04:06:34;;;;;;;7.50;3.00;;;;;;;-143.84;60.69;45054.78;5072865;28;20433;-56
2023/09/10 04:09:03;;;;;;;8.57;3.40;;;;;;;-143.84;62.56;45045.25;5071341;28;20435;-56
2023/09/10 04:11:30;;;;;;;3.20;2.70;;;;;;;-143.84;64.04;45050.97;5071725;28;20461;-56
2023/09/10 04:13:58;;;;;;;12.17;3.80;;;;;;;-143.84;64.67;45066.22;5071697;28;20444;-56
2023/09/10 04:16:28;;;;;;;10.93;2.90;;;;;;;-143.84;64.85;45052.88;5071543;28;20528;-56
2023/09/10 04:18:55;;;;;;;8.33;3.20;;;;;;;-143.84;65.67;45060.50;5071383;28;20448;-56
2023/09/10 04:21:22;;;;;;;6.80;3.07;;;;;;;-143.84;66.45;45050.97;5071174;28;20440;-56
2023/09/10 04:23:49;;;;;;;17.63;4.10;;;;;;;-143.84;67.56;45066.22;5070989;28;20494;-56
2023/09/10 04:26:17;;;;;;;12.23;3.10;;;;;;;-143.84;69.29;45056.69;5071607;28;20741;-56
2023/09/10 04:28:44;;;;;;;16.90;3.40;;;;;;;-143.84;70.22;45047.16;5071569;28;20436;-56
2023/09/10 04:31:13;;;;;;;12.20;3.87;;;;;;;-143.84;70.56;45062.41;5071344;28;20441;-56
2023/09/10 04:33:42;;;;;;;8.40;3.50;;;;;;;-143.84;71.23;45070.00;5071583;28;20837;-56
2023/09/10 04:36:09;;;;;;;12.77;3.33;;;;;;;-143.84;71.58;45052.88;5071318;28;20447;-56
2023/09/10 04:38:36;;;;;;;6.77;3.53;;;;;;;-143.84;71.75;45071.91;5071392;28;20443;-56
2023/09/10 04:41:03;;;;;;;14.40;4.60;;;;;;;-143.84;72.14;45049.06;5071151;28;20472;-56
2023/09/10 04:43:31;;;;;;;11.77;3.03;;;;;;;-143.84;72.60;45054.78;5071311;28;20506;-56
2023/09/10 04:45:58;;;;;;;17.03;3.70;;;;;;;-143.84;72.80;45045.25;5071404;28;20804;-56
2023/09/10 04:48:25;;;;;;;9.00;3.97;;;;;;;-143.84;71.74;45054.78;5071434;28;20551;-56
2023/09/10 04:50:54;;;;;;;10.33;3.80;;;;;;;-143.84;71.23;45028.13;5071361;28;20798;-56
2023/09/10 04:53:21;;;;;;;4.90;3.10;;;;;;;-143.84;70.41;45052.88;5071472;28;20437;-56
2023/09/10 04:55:53;;;;;;;14.27;4.63;;;;;;;-143.84;69.93;45070.00;5066301;28;20462;-56
2023/09/10 04:58:20;;;;;;;12.70;3.70;;;;;;;-143.84;69.32;45056.69;5059470;28;20550;-57
2023/09/10 05:00:49;;;;;;;8.27;4.00;;;;;;;-143.84;69.34;45045.25;5051146;28;20477;-56
2023/09/10 05:03:16;;;;;;;7.30;3.70;;;;;;;-143.84;69.20;45071.91;5050889;28;20524;-56
2023/09/10 05:05:43;;;;;;;9.20;4.27;;;;;;;-143.84;69.04;45049.06;5051082;28;20421;-56
2023/09/10 05:08:12;;;;;;;6.20;3.80;;;;;;;-143.84;68.75;45054.78;5050835;28;20437;-56
2023/09/10 05:10:39;;;;;;;13.07;3.77;;;;;;;-143.84;67.24;45041.44;5049484;28;20453;-56
2023/09/10 05:13:06;;;;;;;11.00;3.70;;;;;;;-143.84;65.82;45050.97;5050776;28;20476;-56
2023/09/10 05:15:33;;;;;;;7.10;2.80;;;;;;;-143.84;64.08;45043.34;5050665;28;20443;-56
2023/09/10 05:18:01;;;;;;;10.20;3.53;;;;;;;-143.84;63.53;45054.78;5053752;28;20452;-56
2023/09/10 05:20:28;;;;;;;6.27;3.80;;;;;;;-143.84;62.14;45035.75;5058658;28;20473;-56
2023/09/10 05:22:55;;;;;;;17.40;3.73;;;;;;;-143.84;61.49;45039.53;5050655;28;20438;-56
2023/09/10 05:25:23;;;;;;;12.67;3.80;;;;;;;-143.84;60.13;45010.97;5050135;28;20438;-54
2023/09/10 05:27:50;;;;;;;9.20;3.27;;;;;;;-143.84;58.63;44997.66;5050424;28;20479;-53
2023/09/10 05:30:18;;;;;;;8.23;2.80;;;;;;;-143.84;56.49;45035.75;5050269;28;20442;-53
2023/09/10 05:32:45;;;;;;;6.57;2.83;;;;;;;-143.84;56.10;44991.94;5050449;28;20453;-53
2023/09/10 05:35:12;;;;;;;9.23;3.80;;;;;;;-143.84;54.78;45010.97;5050454;28;20810;-53
2023/09/10 05:37:39;;;;;;;15.53;3.20;;;;;;;-143.84;53.26;44993.84;5050536;28;20456;-53
2023/09/10 05:40:08;;;;;;;4.60;3.17;;;;;;;-143.84;51.81;44982.41;5049810;28;20908;-53
2023/09/10 05:42:36;;;;;;;11.87;3.10;;;;;;;-143.84;51.25;44995.75;5050362;28;20430;-53
2023/09/10 05:45:04;;;;;;;8.07;3.37;;;;;;;-143.84;49.82;45003.38;5050347;28;21111;-53
2023/09/10 05:47:31;;;;;;;13.13;3.60;;;;;;;-143.84;49.40;44995.75;5050141;28;20495;-53
2023/09/10 05:49:58;;;;;;;13.60;4.23;;;;;;;-143.84;48.67;44986.22;5050400;28;20430;-53
2023/09/10 05:52:25;;;;;;;7.83;3.37;;;;;;;-143.84;48.23;45007.19;5050170;28;20442;-53
2023/09/10 05:54:52;;;;;;;5.90;2.90;;;;;;;-143.84;47.54;44986.22;5048622;28;20980;-53
2023/09/10 05:57:19;;;;;;;13.63;4.03;;;;;;;-143.84;46.69;44950.06;5049339;28;20441;-54
2023/09/10 05:59:49;;;;;;;10.30;3.50;;;;;;;-143.84;46.35;44976.72;5049234;28;20496;-53
2023/09/10 06:02:16;;;;;;;16.93;3.77;;;;;;;-143.84;45.98;44974.81;5059539;28;20441;-53
2023/09/10 06:04:43;;;;;;;10.43;3.50;;;;;;;-143.84;45.18;44972.91;5070022;28;20429;-53
2023/09/10 06:07:11;;;;;;;5.30;2.80;;;;;;;-143.84;44.65;44938.63;5069683;28;20441;-53
2023/09/10 06:09:39;;;;;;;20.13;3.60;;;;;;;-143.84;44.79;44963.38;5069410;28;20445;-54
2023/09/10 06:12:06;;;;;;;10.00;3.70;;;;;;;-143.84;43.63;44980.53;5070169;28;20476;-53
2023/09/10 06:14:34;;;;;;;9.50;3.60;;;;;;;-143.84;43.68;44953.88;5069668;28;20498;-53
2023/09/10 06:17:03;;;;;;;7.50;3.40;;;;;;;-143.84;43.10;44940.53;5069397;28;20440;-54
2023/09/10 06:19:30;;;;;;;14.87;3.27;;;;;;;-143.84;42.25;44976.72;5069074;28;20441;-53
2023/09/10 06:21:57;;;;;;;18.97;3.07;;;;;;;-143.84;42.61;44951.97;5068670;28;20494;-53
2023/09/10 06:24:24;;;;;;;19.20;3.70;;;;;;;-143.84;42.43;44940.53;5068449;28;20439;-53
2023/09/10 06:26:52;;;;;;;5.63;3.20;;;;;;;-143.84;41.67;44940.53;5068895;28;20440;-53
2023/09/10 06:29:19;;;;;;;8.50;3.77;;;;;;;-143.84;41.41;44940.53;5069314;28;20437;-53
2023/09/10 06:31:46;;;;;;;7.40;3.03;;;;;;;-143.84;41.22;44942.44;5068851;28;20436;-53
2023/09/10 06:34:14;;;;;;;11.07;3.30;;;;;;;-143.84;41.37;44942.44;5068610;28;20525;-53
2023/09/10 06:36:41;;;;;;;24.87;3.60;;;;;;;-143.84;40.90;44921.50;5068697;28;20498;-53
2023/09/10 06:39:09;;;;;;;11.73;3.60;;;;;;;-143.84;40.97;44940.53;5068992;28;20986;-53
2023/09/10 06:41:36;;;;;;;10.50;3.77;;;;;;;-143.84;41.48;44946.25;5067012;28;20484;-54
2023/09/10 06:44:04;;;;;;;7.73;3.70;;;;;;;-143.84;41.04;44944.34;5068166;28;20444;-53
2023/09/10 06:46:31;;;;;;;10.90;3.57;;;;;;;-143.84;40.79;44961.47;5068756;28;20451;-54
2023/09/10 06:48:58;;;;;;;17.27;3.27;;;;;;;-143.84;41.27;44946.25;5068717;28;20538;-53
2023/09/10 06:51:27;;;;;;;9.40;3.07;;;;;;;-143.84;42.08;44967.19;5068902;28;20432;-54
2023/09/10 06:53:55;;;;;;;13.60;3.13;;;;;;;-143.84;42.14;44961.47;5068906;28;20498;-54
2023/09/10 06:56:22;;;;;;;12.20;3.50;;;;;;;-143.84;42.41;44946.25;5068576;28;20526;-54
2023/09/10 06:58:49;;;;;;;15.20;3.73;;;;;;;-143.84;43.08;44953.88;5068779;28;20496;-54
2023/09/10 07:01:18;;;;;;;10.13;3.80;;;;;;;-143.84;43.59;44995.75;5068536;28;20476;-54
2023/09/10 07:03:46;;;;;;;10.13;3.63;;;;;;;-143.84;43.05;44995.75;5068681;28;20441;-54
2023/09/10 07:06:13;;;;;;;9.00;3.90;;;;;;;-143.84;43.01;44967.19;5068443;28;21022;-54
2023/09/10 07:08:42;;;;;;;21.37;3.93;;;;;;;-143.84;44.04;45003.38;5068205;28;20966;-53
2023/09/10 07:11:09;;;;;;;7.13;2.67;;;;;;;-143.84;44.21;44988.13;5067815;28;20477;-57
2023/09/10 07:13:37;;;;;;;6.97;3.20;;;;;;;-143.84;44.17;44991.94;5068132;28;20452;-56
2023/09/10 07:16:05;;;;;;;17.67;3.00;;;;;;;-143.84;44.33;44999.56;5068469;28;20444;-56
2023/09/10 07:18:33;;;;;;;19.07;3.43;;;;;;;-143.84;44.44;44990.03;5068168;28;20489;-56
2023/09/10 07:21:00;;;;;;;6.50;3.53;;;;;;;-143.84;44.24;44990.03;5068282;28;20571;-56
2023/09/10 07:23:28;;;;;;;13.13;3.00;;;;;;;-143.84;44.53;44974.81;5068519;28;20524;-56
2023/09/10 07:25:57;;;;;;;6.57;2.90;;;;;;;-143.84;44.77;45026.22;5068230;28;20444;-56
2023/09/10 07:28:24;;;;;;;4.73;2.80;;;;;;;-143.84;44.61;44997.66;5068380;28;20449;-57
2023/09/10 07:30:51;;;;;;;8.37;3.13;;;;;;;-143.84;45.42;44993.84;5068478;28;20433;-56
2023/09/10 07:33:18;;;;;;;5.30;3.00;;;;;;;-143.84;45.33;45007.19;5068161;28;20441;-56
2023/09/10 07:35:45;;;;;;;8.00;3.83;;;;;;;-143.84;45.33;44976.72;5068563;28;20440;-53
2023/09/10 07:38:13;;;;;;;4.80;3.33;;;;;;;-143.84;45.70;45009.09;5068304;28;20845;-53
2023/09/10 07:40:40;;;;;;;10.13;2.67;;;;;;;-143.84;44.37;45001.47;5067811;28;20493;-54
2023/09/10 07:43:08;;;;;;;12.57;2.77;;;;;;;-143.84;43.21;44978.63;5068160;28;20498;-54
2023/09/10 07:45:35;;;;;;;8.63;3.20;;;;;;;-143.84;42.91;44991.94;5068220;28;20448;-54
2023/09/10 07:48:02;;;;;;;5.77;2.60;;;;;;;-143.84;42.78;44988.13;5068385;28;20860;-53
2023/09/10 07:50:29;;;;;;;15.47;3.30;;;;;;;-143.84;42.82;44982.41;5068187;28;20440;-53
2023/09/10 07:52:57;;;;;;;10.10;2.90;;;;;;;-143.84;42.31;44969.09;5068060;28;20429;-54
2023/09/10 07:55:23;;;;;;;9.87;3.00;;;;;;;-143.84;40.43;44972.91;5067829;28;20447;-53
2023/09/10 07:57:51;;;;;;;10.03;3.20;;;;;;;-143.84;41.08;44969.09;5068218;28;20604;-54
2023/09/10 08:00:21;;;;;;;8.37;3.17;;;;;;;-143.84;40.73;44961.47;5067670;28;20488;-54
2023/09/10 08:02:48;;;;;;;11.03;2.80;;;;;;;-143.84;39.60;44961.47;5068068;28;20437;-53
2023/09/10 08:05:15;;;;;;;6.00;3.27;;;;;;;-143.84;38.66;44959.56;5067965;28;20869;-54
2023/09/10 08:07:42;;;;;;;3.80;2.60;;;;;;;-143.84;38.09;44957.66;5068280;28;20558;-53
2023/09/10 08:10:10;;;;;;;4.03;2.80;;;;;;;-143.84;37.43;44948.16;5067700;28;20495;-53
2023/09/10 08:12:37;;;;;;;7.53;2.60;;;;;;;-143.84;37.97;44951.97;5067818;28;20441;-52
2023/09/10 08:15:05;;;;;;;9.20;2.93;;;;;;;-143.84;37.34;44946.25;5067675;28;20437;-52
2023/09/10 08:17:35;;;;;;;12.27;3.67;;;;;;;-143.84;37.81;44938.63;5067638;28;20445;-52
2023/09/10 08:20:04;;;;;;;5.07;2.63;;;;;;;-143.84;37.84;44957.66;5067986;28;20520;-52
2023/09/10 08:22:31;;;;;;;9.03;2.90;;;;;;;-143.84;37.65;44927.19;5067864;28;20503;-52
2023/09/10 08:24:58;;;;;;;4.70;2.50;;;;;;;-143.84;37.00;44955.75;5067383;28;20440;-52
2023/09/10 08:27:26;;;;;;;16.83;3.20;;;;;;;-143.84;37.20;44942.44;5066988;28;20449;-52
2023/09/10 08:29:53;;;;;;;5.17;2.73;;;;;;;-143.84;36.07;44931.00;5067303;28;20966;-52
2023/09/10 08:32:20;;;;;;;4.13;2.93;;;;;;;-143.84;35.86;44951.97;5067195;28;20986;-53
2023/09/10 08:34:48;;;;;;;10.10;2.03;;;;;;;-143.84;35.82;44948.16;5068018;28;20440;-52
2023/09/10 08:37:15;;;;;;;8.60;2.50;;;;;;;-143.84;35.72;44921.50;5067523;28;20579;-52
2023/09/10 08:39:44;;;;;;;3.50;1.70;;;;;;;-143.84;34.96;44911.97;5067770;28;20441;-52
2023/09/10 08:42:20;;;;;;;5.90;2.40;;;;;;;-143.84;34.74;44915.78;5067533;28;21006;-52
2023/09/10 08:44:55;;;;;;;5.40;2.50;;;;;;;-143.84;34.76;44927.19;5068132;28;20440;-52
2023/09/10 08:47:24;;;;;;;14.83;2.90;;;;;;;-143.84;35.74;44934.81;5071494;28;20441;-52
2023/09/10 08:50:00;;;;;;;10.17;1.93;;;;;;;-143.84;34.46;44908.16;5071061;28;20440;-52
2023/09/10 08:52:29;;;;;;;6.50;2.60;;;;;;;-143.84;34.51;44927.19;5071313;28;20453;-52
2023/09/10 08:54:56;;;;;;;5.93;1.93;;;;;;;-143.84;33.93;44932.91;5071328;28;20498;-52
2023/09/10 08:57:24;;;;;;;6.30;2.20;;;;;;;-143.84;33.97;44919.59;5070746;28;20437;-52
2023/09/10 08:59:53;;;;;;;18.67;2.70;;;;;;;-143.84;34.31;44942.44;5070862;28;20480;-52
2023/09/10 09:02:20;;;;;;;10.03;2.30;;;;;;;-143.84;35.47;44913.88;5071009;28;20538;-53
2023/09/10 09:04:48;;;;;;;3.13;1.70;;;;;;;-143.84;34.57;44906.25;5071054;28;20440;-52
2023/09/10 09:07:21;;;;;;;12.07;2.33;;;;;;;-143.84;34.33;44931.00;5070618;28;20441;-52
2023/09/10 09:09:54;;;;;;;5.23;2.37;;;;;;;-143.84;34.52;44927.19;5071183;28;20455;-53
2023/09/10 09:12:22;;;;;;;5.33;2.20;;;;;;;-143.84;34.41;44904.34;5071781;28;20529;-54
2023/09/10 09:14:51;;;;;;;6.30;2.50;;;;;;;-143.84;35.26;44911.97;5071437;28;20452;-54
2023/09/10 09:17:19;;;;;;;5.83;2.30;;;;;;;-143.84;34.74;44942.44;5071001;28;20965;-54
2023/09/10 09:19:49;;;;;;;1.97;1.67;;;;;;;-143.84;34.74;44950.06;5070563;28;20442;-54
2023/09/10 09:22:22;;;;;;;5.70;2.03;;;;;;;-143.84;34.74;44929.09;5070479;28;20827;-54
2023/09/10 09:24:50;;;;;;;6.53;1.87;;;;;;;-143.84;35.22;44921.50;5067542;28;20456;-54
2023/09/10 09:27:18;;;;;;;4.77;2.10;;;;;;;-143.84;34.47;44953.88;5070552;28;20455;-54
2023/09/10 09:29:47;;;;;;;3.43;1.93;;;;;;;-143.84;35.55;44929.09;5071424;28;20448;-54
2023/09/10 09:32:15;;;;;;;3.77;1.90;;;;;;;-143.84;34.85;44953.88;5071254;28;20440;-54
2023/09/10 09:34:42;;;;;;;7.43;2.10;;;;;;;-143.84;35.02;44925.31;5071009;28;20437;-54
2023/09/10 09:37:09;;;;;;;4.40;1.80;;;;;;;-143.84;35.25;44931.00;5071204;28;20433;-54
2023/09/10 09:39:38;;;;;;;6.50;1.90;;;;;;;-143.84;35.55;44946.25;5071280;28;20461;-54
2023/09/10 09:42:07;;;;;;;9.97;1.90;;;;;;;-143.84;36.14;44955.75;5070721;28;20525;-54
2023/09/10 09:44:34;;;;;;;3.57;1.93;;;;;;;-143.84;35.62;44951.97;5071086;28;20476;-55
2023/09/10 09:47:02;;;;;;;2.23;1.30;;;;;;;-143.84;35.24;44951.97;5070695;28;20456;-55
2023/09/10 09:49:29;;;;;;;6.23;1.90;;;;;;;-143.84;34.96;44946.25;5070944;28;20425;-55
2023/09/10 09:51:56;;;;;;;13.13;2.57;;;;;;;-143.84;35.33;44953.88;5070666;28;21012;-55
2023/09/10 09:54:25;;;;;;;5.20;2.10;;;;;;;-143.84;36.22;44931.00;5070493;28;20536;-55
2023/09/10 09:56:53;;;;;;;4.37;1.90;;;;;;;-143.84;34.86;44950.06;5069188;28;20448;-53
2023/09/10 09:59:20;;;;;;;2.87;1.53;;;;;;;-143.84;35.38;44963.38;5069924;28;20503;-53
2023/09/10 10:01:48;;;;;;;7.60;1.87;;;;;;;-143.84;36.33;44931.00;5069593;28;20476;-52
2023/09/10 10:04:18;;;;;;;11.07;2.10;;;;;;;-143.84;35.99;44967.19;5069737;28;20448;-53
2023/09/10 10:06:46;;;;;;;6.83;2.00;;;;;;;-143.84;35.40;44940.53;5069691;28;20456;-53
2023/09/10 10:09:13;;;;;;;5.60;2.57;;;;;;;-143.84;35.73;44953.88;5069818;28;20440;-53
2023/09/10 10:11:41;;;;;;;5.20;1.90;;;;;;;-143.84;35.54;44931.00;5066546;28;20716;-53
2023/09/10 10:14:11;;;;;;;2.70;1.50;;;;;;;-143.84;35.01;44955.75;5068727;28;20445;-53
2023/09/10 10:16:38;;;;;;;2.30;1.90;;;;;;;-143.84;34.27;44971.00;5069089;28;20455;-52
2023/09/10 10:19:08;;;;;;;6.90;1.70;;;;;;;-143.84;34.68;44942.44;5069423;28;20433;-52
2023/09/10 10:21:35;;;;;;;9.53;1.90;;;;;;;-143.84;34.31;44959.56;5068992;28;20511;-53
2023/09/10 10:24:03;;;;;;;4.20;1.93;;;;;;;-143.84;35.02;44965.28;5069173;28;20470;-52
2023/09/10 10:26:32;;;;;;;15.93;2.20;;;;;;;-143.84;34.79;44955.75;5069096;28;20954;-53
2023/09/10 10:29:00;;;;;;;6.93;1.60;;;;;;;-143.84;33.97;44961.47;5069335;28;20436;-52
2023/09/10 10:31:33;;;;;;;5.57;1.63;;;;;;;-143.84;34.52;44980.53;5069586;28;21311;-53
2023/09/10 10:34:04;;;;;;;8.77;1.83;;;;;;;-143.84;35.09;44927.19;5069268;28;20490;-52
2023/09/10 10:36:39;;;;;;;11.90;1.83;;;;;;;-143.84;34.26;44965.28;5068999;28;20523;-52
2023/09/10 10:39:10;;;;;;;10.20;1.90;;;;;;;-143.84;34.22;44976.72;5068726;28;20489;-52
2023/09/10 10:41:44;;;;;;;4.23;1.50;;;;;;;-143.84;33.52;44953.88;5068483;28;20477;-52
2023/09/10 10:44:18;;;;;;;4.70;1.90;;;;;;;-143.84;34.12;44991.94;5069436;28;20508;-52
2023/09/10 10:46:51;;;;;;;2.73;1.40;;;;;;;-143.84;33.99;44948.16;5068919;28;20515;-53
2023/09/10 10:49:20;;;;;;;7.27;1.80;;;;;;;-143.84;34.24;44934.81;5069169;28;20452;-52
2023/09/10 10:51:50;;;;;;;9.33;2.23;;;;;;;-143.84;35.24;44969.09;5069372;28;20436;-53
2023/09/10 10:54:17;;;;;;;6.73;1.80;;;;;;;-143.84;35.96;44972.91;5069019;28;20497;-52
2023/09/10 10:56:45;;;;;;;6.70;2.03;;;;;;;-143.84;35.74;44951.97;5068234;28;20437;-52
2023/09/10 10:59:13;;;;;;;4.50;2.00;;;;;;;-143.84;35.48;44946.25;5068669;28;21050;-53
2023/09/10 11:01:40;;;;;;;6.47;1.47;;;;;;;-143.84;35.92;44944.34;5068727;28;20557;-53
2023/09/10 11:04:21;;;;;;;3.50;1.60;;;;;;;-143.84;36.22;44919.59;5068739;28;20433;-52
2023/09/10 11:07:18;;;;;;;9.70;1.30;;;;;;;-143.84;36.53;44931.00;5069130;28;20449;-53
2023/09/10 11:09:46;;;;;;;9.10;1.40;;;;;;;-143.84;36.13;44938.63;5062965;28;21036;-53
2023/09/10 11:12:14;;;;;;;4.17;1.73;;;;;;;-143.84;37.37;44951.97;5067861;28;20448;-52
2023/09/10 11:15:10;;;;;;;7.20;1.93;;;;;;;-143.84;37.09;44955.75;5068686;28;20445;-52
2023/09/10 11:17:37;;;;;;;6.83;1.80;;;;;;;-143.84;37.46;44997.66;5033313;28;20531;-52
2023/09/10 11:20:08;;;;;;;5.70;1.93;;;;;;;-143.84;37.30;44972.91;5068549;28;21141;-52